Time;durP1;ratioP1;P1;durP2;ratioP2;P2;SDS_P1;SDS_P2;PMS_P1;PMS_P2;Temp;Humidity;BMP_temperature;BMP_pressure;BME280_temperature;BME280_humidity;BME280_pressure;Samples;Min_cycle;Max_cycle;Signal;HPM_P1;HPM_P2
2021/01/23 00:02:22;;;;;;;;;;;17.90;49.40;;;;;;5073398;28;19920;-57
2021/01/23 00:04:48;;;;;;;;;;;17.90;49.40;;;;;;5075722;28;20036;-55
2021/01/23 00:07:15;;;;;;;;;;;17.80;49.40;;;;;;5074062;28;19920;-55
2021/01/23 00:09:41;;;;;;;;;;;17.90;49.50;;;;;;5075979;28;19920;-56
2021/01/23 00:12:07;;;;;;;;;;;17.80;49.50;;;;;;5074879;28;20280;-55
2021/01/23 00:14:53;;;;;;;;;;;17.80;49.60;;;;;;5075423;28;19921;-56
2021/01/23 00:17:20;;;;;;;;;;;17.80;49.50;;;;;;5084577;28;19920;-55
2021/01/23 00:19:46;;;;;;;;;;;17.80;49.60;;;;;;5076764;28;19929;-55
2021/01/23 00:22:12;;;;;;;;;;;17.80;50.20;;;;;;5081117;28;20291;-55
2021/01/23 00:24:38;;;;;;;;;;;17.80;49.60;;;;;;5075020;28;19928;-56
2021/01/23 00:27:04;;;;;;;;;;;17.80;49.60;;;;;;5081353;28;19920;-57
2021/01/23 00:29:31;;;;;;;;;;;17.70;49.70;;;;;;5057045;28;19986;-57
2021/01/23 00:31:57;;;;;;;;;;;17.70;49.70;;;;;;5075891;28;19921;-54
2021/01/23 00:34:24;;;;;;;;;;;17.70;49.70;;;;;;5074182;28;19926;-55
2021/01/23 00:36:50;;;;;;;;;;;17.70;49.80;;;;;;5074928;28;19920;-55
2021/01/23 00:39:16;;;;;;;;;;;17.70;49.80;;;;;;5076119;28;19924;-55
2021/01/23 00:41:42;;;;;;;;;;;17.70;49.80;;;;;;5075152;28;20363;-55
2021/01/23 00:44:08;;;;;;;;;;;17.70;49.80;;;;;;5074699;28;19920;-56
2021/01/23 00:46:39;;;;;;;;;;;17.60;49.70;;;;;;5075807;28;19920;-55
2021/01/23 00:49:05;;;;;;;;;;;17.70;49.90;;;;;;5072745;28;19920;-55
2021/01/23 00:51:31;;;;;;;;;;;17.60;49.90;;;;;;5076033;28;19999;-56
2021/01/23 00:53:58;;;;;;;;;;;17.60;49.90;;;;;;5076242;28;19920;-56
2021/01/23 00:56:24;;;;;;;;;;;17.60;50.00;;;;;;5075029;28;19929;-57
2021/01/23 00:58:50;;;;;;;;;;;17.60;49.90;;;;;;5074857;28;19921;-57
2021/01/23 01:01:16;;;;;;;;;;;17.60;50.00;;;;;;5077897;28;19924;-57
2021/01/23 01:03:42;;;;;;;;;;;17.60;50.00;;;;;;5074758;28;19939;-56
2021/01/23 01:09:30;;;;;;;;;;;17.50;49.90;;;;;;5065222;28;19920;-55
2021/01/23 01:11:57;;;;;;;;;;;17.50;50.00;;;;;;5074789;28;19926;-55
2021/01/23 01:14:23;;;;;;;;;;;17.50;50.00;;;;;;5074667;28;19927;-55
2021/01/23 01:16:50;;;;;;;;;;;17.50;50.00;;;;;;5074060;28;19927;-55
2021/01/23 01:19:16;;;;;;;;;;;17.50;50.60;;;;;;5070702;28;19926;-55
2021/01/23 01:21:43;;;;;;;;;;;17.50;50.00;;;;;;5071613;28;20281;-55
2021/01/23 01:24:09;;;;;;;;;;;17.50;50.10;;;;;;5063529;28;19919;-57
2021/01/23 01:26:40;;;;;;;;;;;17.50;50.10;;;;;;5077577;28;19931;-56
2021/01/23 01:29:06;;;;;;;;;;;17.50;50.10;;;;;;5072532;28;19924;-57
2021/01/23 01:31:33;;;;;;;;;;;17.50;50.20;;;;;;5072631;28;20384;-57
2021/01/23 01:33:59;;;;;;;;;;;17.40;50.10;;;;;;5082408;28;19928;-57
2021/01/23 01:43:09;;;;;;;;;;;17.40;50.20;;;;;;5074256;28;19958;-55
2021/01/23 01:45:35;;;;;;;;;;;17.40;50.30;;;;;;5074312;28;19928;-57
2021/01/23 01:48:02;;;;;;;;;;;17.40;50.40;;;;;;5072645;28;19945;-57
2021/01/23 01:50:29;;;;;;;;;;;17.40;50.40;;;;;;5073533;28;19942;-57
2021/01/23 01:52:55;;;;;;;;;;;17.40;50.40;;;;;;5071813;28;19927;-57
2021/01/23 01:55:30;;;;;;;;;;;17.40;51.00;;;;;;5070154;28;20365;-57
2021/01/23 01:57:57;;;;;;;;;;;17.30;50.40;;;;;;5069498;28;19920;-56
2021/01/23 02:00:23;;;;;;;;;;;17.30;50.40;;;;;;5077191;28;19920;-56
2021/01/23 02:02:58;;;;;;;;;;;17.30;50.40;;;;;;5072990;28;19920;-58
2021/01/23 02:05:27;;;;;;;;;;;17.30;50.40;;;;;;5078687;28;19920;-57
2021/01/23 02:08:09;;;;;;;;;;;17.30;50.50;;;;;;5073224;28;19927;-56
2021/01/23 02:10:47;;;;;;;;;;;17.30;50.50;;;;;;5075387;28;19927;-57
2021/01/23 02:13:20;;;;;;;;;;;17.30;50.60;;;;;;5072998;28;19928;-56
2021/01/23 02:15:56;;;;;;;;;;;17.30;50.60;;;;;;5072635;28;20329;-57
2021/01/23 02:18:23;;;;;;;;;;;17.20;50.50;;;;;;5078143;28;20408;-56
2021/01/23 02:21:06;;;;;;;;;;;17.30;50.60;;;;;;5074243;28;19924;-57
2021/01/23 02:23:45;;;;;;;;;;;17.20;50.60;;;;;;5073982;28;19927;-57
2021/01/23 02:29:36;;;;;;;;;;;17.20;50.60;;;;;;5075639;28;19912;-57
2021/01/23 02:32:04;;;;;;;;;;;17.20;50.60;;;;;;5073339;28;20278;-57
2021/01/23 02:34:31;;;;;;;;;;;17.20;50.60;;;;;;5073240;28;19920;-56
2021/01/23 02:36:58;;;;;;;;;;;17.20;50.60;;;;;;5055628;28;19921;-56
2021/01/23 02:39:25;;;;;;;;;;;17.20;50.60;;;;;;5072280;28;19927;-56
2021/01/23 02:41:51;;;;;;;;;;;17.20;50.60;;;;;;5073283;28;19920;-57
2021/01/23 02:44:17;;;;;;;;;;;17.10;50.60;;;;;;5068949;28;19920;-55
2021/01/23 02:50:06;;;;;;;;;;;17.10;50.60;;;;;;5072787;28;20304;-55
2021/01/23 02:52:47;;;;;;;;;;;17.10;50.70;;;;;;5083682;28;19920;-55
2021/01/23 02:58:35;;;;;;;;;;;17.10;50.60;;;;;;5078141;28;19909;-56
2021/01/23 03:01:04;;;;;;;;;;;17.10;50.70;;;;;;5072764;28;20352;-54
2021/01/23 03:03:31;;;;;;;;;;;17.10;50.60;;;;;;5074988;28;19920;-55
2021/01/23 03:06:00;;;;;;;;;;;17.10;50.70;;;;;;5072984;28;19920;-55
2021/01/23 03:08:26;;;;;;;;;;;17.10;50.70;;;;;;5070946;28;19947;-56
2021/01/23 03:10:52;;;;;;;;;;;17.10;50.70;;;;;;5071325;28;19921;-57
2021/01/23 03:13:18;;;;;;;;;;;17.00;50.60;;;;;;5073248;28;19921;-56
2021/01/23 03:15:45;;;;;;;;;;;17.10;50.60;;;;;;5073638;28;19921;-56
2021/01/23 03:18:11;;;;;;;;;;;17.10;50.60;;;;;;5073087;28;19920;-56
2021/01/23 03:20:39;;;;;;;;;;;17.10;50.60;;;;;;5072445;28;20422;-56
2021/01/23 03:23:05;;;;;;;;;;;17.00;50.60;;;;;;5073464;28;19920;-56
2021/01/23 03:28:35;;;;;;;;;;;17.00;50.70;;;;;;5073026;28;19921;-56
2021/01/23 03:31:02;;;;;;;;;;;17.00;50.70;;;;;;5071868;28;19928;-55
2021/01/23 03:33:28;;;;;;;;;;;17.00;50.70;;;;;;5064308;28;19928;-55
2021/01/23 03:38:58;;;;;;;;;;;17.00;51.40;;;;;;5077715;28;19920;-55
2021/01/23 03:41:24;;;;;;;;;;;17.00;50.70;;;;;;5079398;28;19920;-57
2021/01/23 03:43:50;;;;;;;;;;;17.00;50.70;;;;;;5082340;28;19920;-56
2021/01/23 03:46:42;;;;;;;;;;;17.00;50.80;;;;;;5076000;28;19931;-54
2021/01/23 03:49:08;;;;;;;;;;;16.90;50.70;;;;;;5076796;28;19921;-55
2021/01/23 03:51:34;;;;;;;;;;;16.90;50.70;;;;;;5075555;28;19921;-55
2021/01/23 03:54:00;;;;;;;;;;;16.90;50.70;;;;;;5076593;28;20304;-54
2021/01/23 03:56:27;;;;;;;;;;;16.90;50.80;;;;;;5075466;28;19924;-55
2021/01/23 03:58:53;;;;;;;;;;;16.90;50.80;;;;;;5075148;28;19920;-54
2021/01/23 04:01:19;;;;;;;;;;;16.90;50.70;;;;;;5075664;28;20400;-54
2021/01/23 04:03:45;;;;;;;;;;;16.90;50.70;;;;;;5081567;28;20407;-54
2021/01/23 04:09:33;;;;;;;;;;;16.90;50.80;;;;;;5076025;28;19908;-56
2021/01/23 04:11:59;;;;;;;;;;;16.90;50.80;;;;;;5078529;28;20376;-56
2021/01/23 04:14:26;;;;;;;;;;;16.90;50.80;;;;;;5078856;28;19920;-55
2021/01/23 04:16:52;;;;;;;;;;;16.90;51.40;;;;;;5086705;28;19928;-55
2021/01/23 04:19:18;;;;;;;;;;;16.90;50.80;;;;;;5077564;28;19935;-55
2021/01/23 04:21:44;;;;;;;;;;;16.90;50.80;;;;;;5076544;28;19920;-55
2021/01/23 04:24:11;;;;;;;;;;;16.90;50.90;;;;;;5075067;28;19920;-55
2021/01/23 04:30:00;;;;;;;;;;;16.90;50.90;;;;;;5071246;28;19913;-55
2021/01/23 04:32:27;;;;;;;;;;;16.80;50.90;;;;;;5081144;28;19930;-55
2021/01/23 04:35:09;;;;;;;;;;;16.80;50.90;;;;;;5075372;28;19927;-55
2021/01/23 04:37:39;;;;;;;;;;;16.80;50.90;;;;;;5075427;28;19955;-55
2021/01/23 04:40:06;;;;;;;;;;;16.80;51.60;;;;;;5073773;28;19924;-55
2021/01/23 04:42:34;;;;;;;;;;;16.80;50.90;;;;;;5077984;28;19946;-55
2021/01/23 04:48:04;;;;;;;;;;;16.80;50.90;;;;;;5060862;28;19927;-55
2021/01/23 04:50:31;;;;;;;;;;;16.80;50.90;;;;;;5075261;28;19989;-55
2021/01/23 04:52:57;;;;;;;;;;;16.80;50.90;;;;;;5075272;28;19920;-55
2021/01/23 04:55:43;;;;;;;;;;;16.80;50.80;;;;;;5073994;28;19920;-55
2021/01/23 04:58:10;;;;;;;;;;;16.80;50.90;;;;;;5078584;28;19920;-55
2021/01/23 05:00:36;;;;;;;;;;;16.80;50.80;;;;;;5074323;28;19921;-55
2021/01/23 05:03:06;;;;;;;;;;;16.80;50.80;;;;;;5081609;28;19920;-55
2021/01/23 05:05:33;;;;;;;;;;;16.80;50.80;;;;;;5073986;28;19935;-55
2021/01/23 05:08:07;;;;;;;;;;;16.80;50.90;;;;;;5074828;28;19927;-56
2021/01/23 05:10:33;;;;;;;;;;;16.70;50.90;;;;;;5074184;28;19927;-55
2021/01/23 05:13:00;;;;;;;;;;;16.70;50.80;;;;;;5074795;28;19927;-55
2021/01/23 05:15:30;;;;;;;;;;;16.80;50.90;;;;;;5074114;28;19921;-55
2021/01/23 05:18:06;;;;;;;;;;;16.70;51.40;;;;;;5074475;28;19989;-55
2021/01/23 05:20:33;;;;;;;;;;;16.70;50.80;;;;;;5073731;28;19926;-55
2021/01/23 05:23:01;;;;;;;;;;;16.70;50.80;;;;;;5082948;28;19920;-55
2021/01/23 05:25:41;;;;;;;;;;;16.70;50.80;;;;;;5073675;28;19924;-55
2021/01/23 05:28:09;;;;;;;;;;;16.70;51.40;;;;;;5072574;28;19951;-55
2021/01/23 05:30:43;;;;;;;;;;;16.70;51.40;;;;;;5073391;28;19928;-55
2021/01/23 05:33:14;;;;;;;;;;;16.70;50.80;;;;;;5073956;28;19927;-55
2021/01/23 05:39:02;;;;;;;;;;;16.70;50.80;;;;;;5074024;28;20361;-55
2021/01/23 05:41:28;;;;;;;;;;;16.70;50.80;;;;;;5073662;28;19926;-55
2021/01/23 05:43:55;;;;;;;;;;;16.60;50.80;;;;;;5082401;28;19927;-55
2021/01/23 05:49:42;;;;;;;;;;;16.60;50.80;;;;;;5070852;28;19909;-55
2021/01/23 05:52:09;;;;;;;;;;;16.70;50.80;;;;;;5073627;28;20297;-55
2021/01/23 05:54:35;;;;;;;;;;;16.70;50.90;;;;;;5073838;28;20297;-55
2021/01/23 05:57:02;;;;;;;;;;;16.60;50.90;;;;;;5073839;28;19966;-55
2021/01/23 05:59:28;;;;;;;;;;;16.60;50.80;;;;;;5073659;28;19927;-55
2021/01/23 06:01:54;;;;;;;;;;;16.60;51.40;;;;;;5069938;28;19920;-55
2021/01/23 06:04:21;;;;;;;;;;;16.70;50.90;;;;;;5073886;28;20393;-55
2021/01/23 06:10:21;;;;;;;;;;;16.60;50.80;;;;;;5077351;28;19908;-55
2021/01/23 06:12:51;;;;;;;;;;;16.60;50.90;;;;;;5074134;28;20345;-55
2021/01/23 06:15:52;;;;;;;;;;;16.60;50.90;;;;;;5078404;28;19924;-55
2021/01/23 06:18:21;;;;;;;;;;;16.60;51.60;;;;;;5070799;28;19920;-55
2021/01/23 06:20:47;;;;;;;;;;;16.60;51.10;;;;;;5073587;28;20265;-55
2021/01/23 06:23:16;;;;;;;;;;;16.60;51.00;;;;;;5072543;28;19943;-55
2021/01/23 06:29:04;;;;;;;;;;;16.60;51.00;;;;;;5072199;28;19951;-55
2021/01/23 06:31:31;;;;;;;;;;;16.60;50.90;;;;;;5073269;28;19928;-55
2021/01/23 06:33:58;;;;;;;;;;;16.60;50.90;;;;;;5072561;28;19925;-55
2021/01/23 06:36:39;;;;;;;;;;;16.50;50.80;;;;;;5071141;28;19920;-55
2021/01/23 06:39:07;;;;;;;;;;;16.50;50.80;;;;;;5075467;28;19943;-55
2021/01/23 06:41:37;;;;;;;;;;;16.50;50.80;;;;;;5073826;28;19927;-55
2021/01/23 06:44:06;;;;;;;;;;;16.50;50.70;;;;;;5072562;28;19928;-55
2021/01/23 06:49:55;;;;;;;;;;;16.50;50.70;;;;;;5080979;28;19908;-55
2021/01/23 06:52:21;;;;;;;;;;;16.50;50.70;;;;;;5078100;28;19920;-55
2021/01/23 06:55:12;;;;;;;;;;;16.50;50.70;;;;;;5072994;28;19921;-55
2021/01/23 06:57:43;;;;;;;;;;;16.50;50.70;;;;;;5070305;28;19981;-55
2021/01/23 07:00:09;;;;;;;;;;;16.50;50.80;;;;;;5072142;28;19928;-55
2021/01/23 07:02:35;;;;;;;;;;;16.50;50.70;;;;;;5073053;28;19920;-55
2021/01/23 07:05:05;;;;;;;;;;;16.50;50.80;;;;;;5072258;28;19927;-55
2021/01/23 07:07:35;;;;;;;;;;;16.50;50.80;;;;;;5073276;28;19934;-55
2021/01/23 07:10:05;;;;;;;;;;;16.50;50.80;;;;;;5072268;28;20278;-55
2021/01/23 07:12:40;;;;;;;;;;;16.40;50.80;;;;;;5075002;28;19927;-55
2021/01/23 07:15:09;;;;;;;;;;;16.50;50.90;;;;;;5077052;28;19927;-54
2021/01/23 07:17:36;;;;;;;;;;;16.50;50.80;;;;;;5077388;28;20288;-55
2021/01/23 07:20:04;;;;;;;;;;;16.40;50.90;;;;;;5076336;28;19920;-55
2021/01/23 07:22:33;;;;;;;;;;;16.40;50.80;;;;;;5074883;28;20281;-57
2021/01/23 07:25:00;;;;;;;;;;;16.40;50.90;;;;;;5063931;28;19939;-57
2021/01/23 07:27:26;;;;;;;;;;;16.40;50.90;;;;;;5085324;28;19920;-54
2021/01/23 07:29:52;;;;;;;;;;;16.40;50.90;;;;;;5075520;28;19947;-54
2021/01/23 07:32:18;;;;;;;;;;;16.40;51.00;;;;;;5077894;28;19928;-57
2021/01/23 07:34:59;;;;;;;;;;;16.40;50.80;;;;;;5061082;28;19951;-57
2021/01/23 07:37:51;;;;;;;;;;;16.40;50.90;;;;;;5067280;28;19952;-57
2021/01/23 07:40:24;;;;;;;;;;;16.40;50.90;;;;;;5060321;28;20377;-57
2021/01/23 07:42:51;;;;;;;;;;;16.40;50.90;;;;;;5066865;28;20341;-57
2021/01/23 07:45:18;;;;;;;;;;;16.40;51.00;;;;;;5063986;28;19932;-54
2021/01/23 07:47:57;;;;;;;;;;;16.40;51.00;;;;;;5073225;28;19920;-54
2021/01/23 07:50:24;;;;;;;;;;;16.40;51.20;;;;;;5076064;28;19919;-54
2021/01/23 07:52:50;;;;;;;;;;;16.40;51.10;;;;;;5076983;28;19974;-54
2021/01/23 07:58:47;;;;;;;;;;;16.40;51.10;;;;;;5074365;28;19915;-54
2021/01/23 08:01:15;;;;;;;;;;;16.40;51.20;;;;;;5074672;28;19920;-54
2021/01/23 08:03:41;;;;;;;;;;;16.40;51.20;;;;;;5093344;28;19931;-54
2021/01/23 08:06:18;;;;;;;;;;;16.40;51.90;;;;;;5075689;28;19928;-54
2021/01/23 08:08:45;;;;;;;;;;;16.40;52.00;;;;;;5077061;28;19927;-54
2021/01/23 08:11:31;;;;;;;;;;;16.40;51.30;;;;;;5074812;28;19920;-54
2021/01/23 08:14:05;;;;;;;;;;;16.40;51.40;;;;;;5075312;28;20360;-54
2021/01/23 08:16:32;;;;;;;;;;;16.40;51.30;;;;;;5066081;28;19927;-57
2021/01/23 08:19:05;;;;;;;;;;;16.40;51.40;;;;;;5070853;28;20308;-57
2021/01/23 08:21:31;;;;;;;;;;;16.30;51.30;;;;;;5063100;28;19928;-56
2021/01/23 08:23:57;;;;;;;;;;;16.40;51.30;;;;;;5061384;28;19928;-56
2021/01/23 08:26:36;;;;;;;;;;;16.70;51.50;;;;;;5064185;28;20535;-57
2021/01/23 08:29:03;;;;;;;;;;;17.40;50.10;;;;;;5066222;28;19947;-57
2021/01/23 08:31:29;;;;;;;;;;;18.00;48.80;;;;;;5063533;28;19921;-57
2021/01/23 08:33:56;;;;;;;;;;;18.40;48.00;;;;;;5062069;28;19928;-57
2021/01/23 08:36:23;;;;;;;;;;;18.70;47.70;;;;;;5066053;28;19928;-57
2021/01/23 08:39:04;;;;;;;;;;;18.90;47.40;;;;;;5059505;28;19971;-58
2021/01/23 08:41:30;;;;;;;;;;;19.10;47.00;;;;;;5066923;28;19940;-59
2021/01/23 08:43:57;;;;;;;;;;;19.30;46.50;;;;;;5061405;28;19928;-57
2021/01/23 08:46:23;;;;;;;;;;;19.50;46.10;;;;;;5066356;28;19920;-57
2021/01/23 08:48:50;;;;;;;;;;;19.60;45.80;;;;;;5057747;28;19920;-56
2021/01/23 08:51:18;;;;;;;;;;;19.80;45.60;;;;;;5065102;28;19920;-57
2021/01/23 08:53:44;;;;;;;;;;;19.90;45.30;;;;;;5058723;28;19924;-57
2021/01/23 08:56:14;;;;;;;;;;;20.00;45.00;;;;;;5071151;28;19928;-54
2021/01/23 08:58:40;;;;;;;;;;;20.10;44.90;;;;;;5058623;28;19994;-55
2021/01/23 09:01:06;;;;;;;;;;;19.90;45.00;;;;;;5068115;28;20368;-56
2021/01/23 09:03:33;;;;;;;;;;;19.90;45.10;;;;;;5062245;28;19924;-56
2021/01/23 09:05:59;;;;;;;;;;;19.90;45.00;;;;;;5069497;28;19925;-56
2021/01/23 09:08:25;;;;;;;;;;;20.00;44.90;;;;;;5058939;28;19935;-57
2021/01/23 09:10:52;;;;;;;;;;;20.00;44.90;;;;;;5071479;28;19939;-58
2021/01/23 09:13:18;;;;;;;;;;;20.10;44.90;;;;;;5068224;28;20340;-59
2021/01/23 09:15:44;;;;;;;;;;;20.10;45.30;;;;;;5069809;28;19924;-60
2021/01/23 09:18:10;;;;;;;;;;;20.10;46.30;;;;;;5064217;28;19928;-59
2021/01/23 09:20:37;;;;;;;;;;;20.20;46.50;;;;;;5062285;28;19924;-55
2021/01/23 09:23:03;;;;;;;;;;;20.30;46.00;;;;;;5068521;28;19921;-55
2021/01/23 09:25:29;;;;;;;;;;;20.40;45.80;;;;;;5072352;28;19920;-55
2021/01/23 09:27:55;;;;;;;;;;;20.50;46.70;;;;;;5073865;28;20361;-56
2021/01/23 09:30:21;;;;;;;;;;;20.60;46.00;;;;;;5071990;28;19920;-53
2021/01/23 09:32:48;;;;;;;;;;;20.70;45.80;;;;;;5075031;28;19927;-53
2021/01/23 09:35:15;;;;;;;;;;;20.80;45.40;;;;;;5060934;28;19928;-52
2021/01/23 09:37:41;;;;;;;;;;;20.80;45.40;;;;;;5071572;28;19951;-55
2021/01/23 09:40:07;;;;;;;;;;;20.80;45.20;;;;;;5067602;28;19958;-56
2021/01/23 09:42:34;;;;;;;;;;;20.80;45.10;;;;;;5069934;28;19921;-58
2021/01/23 09:45:00;;;;;;;;;;;20.90;44.90;;;;;;5060723;28;19920;-59
2021/01/23 09:47:26;;;;;;;;;;;21.00;44.90;;;;;;5068148;28;19920;-58
2021/01/23 09:49:52;;;;;;;;;;;21.10;44.70;;;;;;5061838;28;21208;-56
2021/01/23 09:52:19;;;;;;;;;;;21.10;44.70;;;;;;5066402;28;19920;-57
2021/01/23 09:54:45;;;;;;;;;;;21.10;44.60;;;;;;5070205;28;19932;-56
2021/01/23 09:57:11;;;;;;;;;;;21.20;44.50;;;;;;5063838;28;19927;-56
2021/01/23 09:59:38;;;;;;;;;;;21.30;44.40;;;;;;5067873;28;19947;-56
2021/01/23 10:02:04;;;;;;;;;;;21.40;44.30;;;;;;5073404;28;19919;-55
2021/01/23 10:04:30;;;;;;;;;;;21.40;44.30;;;;;;5077118;28;19924;-57
2021/01/23 10:06:57;;;;;;;;;;;21.40;44.10;;;;;;5063714;28;20125;-56
2021/01/23 10:09:23;;;;;;;;;;;21.50;44.60;;;;;;5068999;28;19920;-57
2021/01/23 10:11:50;;;;;;;;;;;21.50;44.10;;;;;;5073833;28;20250;-54
2021/01/23 10:14:17;;;;;;;;;;;21.60;43.90;;;;;;5069655;28;19927;-54
2021/01/23 10:16:43;;;;;;;;;;;21.60;43.90;;;;;;5067605;28;19920;-54
2021/01/23 10:19:09;;;;;;;;;;;21.70;43.90;;;;;;5068142;28;19921;-54
2021/01/23 10:21:36;;;;;;;;;;;21.70;44.10;;;;;;5069492;28;19928;-55
2021/01/23 10:24:03;;;;;;;;;;;21.80;44.00;;;;;;5073864;28;19966;-54
2021/01/23 10:26:29;;;;;;;;;;;21.80;43.90;;;;;;5070476;28;19924;-55
2021/01/23 10:28:56;;;;;;;;;;;21.80;44.20;;;;;;5073117;28;19921;-54
2021/01/23 10:31:22;;;;;;;;;;;21.90;43.60;;;;;;5070829;28;19974;-54
2021/01/23 10:33:49;;;;;;;;;;;22.00;43.60;;;;;;5068482;28;19928;-53
2021/01/23 10:36:15;;;;;;;;;;;22.00;43.50;;;;;;5054214;28;19920;-53
2021/01/23 10:38:42;;;;;;;;;;;22.00;43.50;;;;;;5067937;28;20311;-53
2021/01/23 10:41:08;;;;;;;;;;;22.00;43.40;;;;;;5067260;28;20273;-53
2021/01/23 10:43:34;;;;;;;;;;;22.10;43.40;;;;;;5068893;28;19958;-52
2021/01/23 10:46:06;;;;;;;;;;;21.80;43.30;;;;;;5082195;28;19920;-54
2021/01/23 10:48:32;;;;;;;;;;;21.40;43.90;;;;;;5071520;28;20408;-53
2021/01/23 10:50:59;;;;;;;;;;;21.10;44.50;;;;;;5074993;28;19955;-56
2021/01/23 10:53:25;;;;;;;;;;;20.80;44.90;;;;;;5075777;28;20397;-56
2021/01/23 10:55:56;;;;;;;;;;;20.60;45.20;;;;;;5075697;28;19928;-55
2021/01/23 10:58:22;;;;;;;;;;;20.50;45.40;;;;;;5069293;28;20460;-55
2021/01/23 11:00:48;;;;;;;;;;;20.30;45.70;;;;;;5076524;28;19927;-56
2021/01/23 11:03:14;;;;;;;;;;;20.20;45.80;;;;;;5069944;28;20377;-55
2021/01/23 11:05:43;;;;;;;;;;;20.00;45.80;;;;;;5082037;28;20384;-55
2021/01/23 11:08:09;;;;;;;;;;;19.90;46.00;;;;;;5061736;28;19935;-55
2021/01/23 11:10:36;;;;;;;;;;;19.90;46.10;;;;;;5072906;28;19938;-57
2021/01/23 11:13:02;;;;;;;;;;;19.90;46.20;;;;;;5058754;28;20006;-55
2021/01/23 11:15:28;;;;;;;;;;;19.70;46.30;;;;;;5072015;28;19943;-55
2021/01/23 11:17:55;;;;;;;;;;;19.70;46.40;;;;;;5067736;28;19920;-56
2021/01/23 11:20:21;;;;;;;;;;;19.60;46.40;;;;;;5063841;28;19974;-55
2021/01/23 11:22:47;;;;;;;;;;;19.60;46.50;;;;;;5068841;28;19924;-55
2021/01/23 11:25:14;;;;;;;;;;;19.50;46.60;;;;;;5066739;28;20388;-55
2021/01/23 11:27:40;;;;;;;;;;;19.50;46.70;;;;;;5069849;28;19927;-56
2021/01/23 11:30:09;;;;;;;;;;;19.40;46.70;;;;;;5064387;28;19943;-55
2021/01/23 11:32:35;;;;;;;;;;;19.30;46.80;;;;;;5071986;28;19927;-55
2021/01/23 11:35:03;;;;;;;;;;;19.30;46.80;;;;;;5061035;28;19921;-55
2021/01/23 11:37:30;;;;;;;;;;;19.20;46.80;;;;;;5070768;28;19920;-56
2021/01/23 11:39:56;;;;;;;;;;;19.10;46.90;;;;;;5065628;28;19920;-55
2021/01/23 11:42:22;;;;;;;;;;;19.10;47.10;;;;;;5073082;28;19927;-56
2021/01/23 11:44:48;;;;;;;;;;;19.00;47.10;;;;;;5069023;28;20520;-56
2021/01/23 11:47:14;;;;;;;;;;;19.00;47.10;;;;;;5071687;28;23304;-56
2021/01/23 11:49:42;;;;;;;;;;;19.00;47.30;;;;;;5064754;28;19978;-55
2021/01/23 11:52:08;;;;;;;;;;;18.90;47.30;;;;;;5069948;28;19921;-56
2021/01/23 11:54:34;;;;;;;;;;;18.80;47.40;;;;;;5062734;28;19923;-57
2021/01/23 11:57:01;;;;;;;;;;;18.80;47.50;;;;;;5068105;28;19920;-55
2021/01/23 11:59:27;;;;;;;;;;;18.80;47.60;;;;;;5067609;28;21200;-56
2021/01/23 12:01:53;;;;;;;;;;;18.70;47.60;;;;;;5064561;28;19943;-52
2021/01/23 12:04:19;;;;;;;;;;;18.60;47.80;;;;;;5068869;28;19966;-53
2021/01/23 12:06:54;;;;;;;;;;;18.60;47.80;;;;;;5065062;28;19951;-52
2021/01/23 12:09:20;;;;;;;;;;;18.60;47.90;;;;;;5070703;28;19927;-52
2021/01/23 12:11:47;;;;;;;;;;;18.60;47.90;;;;;;5065636;28;20149;-55
2021/01/23 12:14:14;;;;;;;;;;;18.50;48.00;;;;;;5069554;28;19928;-55
2021/01/23 12:16:41;;;;;;;;;;;18.50;48.00;;;;;;5065670;28;19928;-55
2021/01/23 12:19:08;;;;;;;;;;;18.50;48.00;;;;;;5069594;28;19924;-57
2021/01/23 12:21:34;;;;;;;;;;;18.40;48.20;;;;;;5063478;28;20417;-56
2021/01/23 12:24:01;;;;;;;;;;;18.40;48.10;;;;;;5070134;28;20365;-55
2021/01/23 12:26:27;;;;;;;;;;;18.40;48.20;;;;;;5065285;28;19931;-55
2021/01/23 12:28:54;;;;;;;;;;;18.30;48.20;;;;;;5067134;28;19956;-56
2021/01/23 12:31:20;;;;;;;;;;;18.30;48.30;;;;;;5063768;28;19928;-55
2021/01/23 12:33:47;;;;;;;;;;;18.30;48.40;;;;;;5067390;28;20396;-56
2021/01/23 12:36:13;;;;;;;;;;;18.30;48.30;;;;;;5060608;28;19924;-56
2021/01/23 12:38:40;;;;;;;;;;;18.30;48.40;;;;;;5064501;28;20580;-56
2021/01/23 12:41:06;;;;;;;;;;;18.30;48.50;;;;;;5069098;28;19927;-57
2021/01/23 12:43:32;;;;;;;;;;;18.20;48.50;;;;;;5062239;28;19936;-57
2021/01/23 12:46:03;;;;;;;;;;;18.20;49.10;;;;;;5076705;28;19928;-58
2021/01/23 12:48:30;;;;;;;;;;;18.20;49.50;;;;;;5068590;28;19959;-58
2021/01/23 12:50:56;;;;;;;;;;;18.20;49.20;;;;;;5069544;28;19920;-58
2021/01/23 12:53:22;;;;;;;;;;;18.20;49.10;;;;;;5066252;28;19927;-58
2021/01/23 12:55:48;;;;;;;;;;;18.20;49.00;;;;;;5068386;28;19920;-56
2021/01/23 12:58:15;;;;;;;;;;;18.20;48.90;;;;;;5060116;28;19940;-57
2021/01/23 13:00:43;;;;;;;;;;;18.20;48.90;;;;;;5065385;28;19921;-56
2021/01/23 13:03:09;;;;;;;;;;;18.20;48.90;;;;;;5061497;28;19920;-56
2021/01/23 13:05:35;;;;;;;;;;;18.10;48.90;;;;;;5067742;28;19920;-56
2021/01/23 13:08:02;;;;;;;;;;;18.20;49.00;;;;;;5061639;28;19920;-56
2021/01/23 13:10:29;;;;;;;;;;;18.10;48.90;;;;;;5063537;28;19921;-56
2021/01/23 13:12:55;;;;;;;;;;;18.10;49.00;;;;;;5061724;28;20380;-56
2021/01/23 13:15:22;;;;;;;;;;;18.10;49.00;;;;;;5066658;28;20021;-56
2021/01/23 13:17:48;;;;;;;;;;;18.10;49.10;;;;;;5065080;28;19995;-56
2021/01/23 13:20:14;;;;;;;;;;;18.00;49.20;;;;;;5069299;28;19977;-56
2021/01/23 13:22:40;;;;;;;;;;;18.00;49.10;;;;;;5070387;28;19920;-56
2021/01/23 13:25:08;;;;;;;;;;;18.00;49.20;;;;;;5061732;28;19920;-56
2021/01/23 13:27:36;;;;;;;;;;;18.00;49.20;;;;;;5067448;28;19920;-56
2021/01/23 13:30:06;;;;;;;;;;;18.00;49.40;;;;;;5060155;28;19927;-57
2021/01/23 13:32:32;;;;;;;;;;;18.00;49.40;;;;;;5067703;28;19928;-56
2021/01/23 13:34:59;;;;;;;;;;;18.00;49.40;;;;;;5060799;28;19928;-56
2021/01/23 13:37:25;;;;;;;;;;;18.00;49.40;;;;;;5064915;28;19920;-56
2021/01/23 13:39:51;;;;;;;;;;;18.00;49.40;;;;;;5062086;28;19946;-56
2021/01/23 13:42:17;;;;;;;;;;;17.90;49.30;;;;;;5065686;28;20299;-56
2021/01/23 13:44:44;;;;;;;;;;;18.00;49.40;;;;;;5058188;28;19920;-56
2021/01/23 13:47:10;;;;;;;;;;;17.90;49.30;;;;;;5063729;28;19931;-56
2021/01/23 13:49:36;;;;;;;;;;;17.90;49.40;;;;;;5060934;28;19928;-56
2021/01/23 13:52:07;;;;;;;;;;;17.90;49.40;;;;;;5066049;28;19928;-56
2021/01/23 13:54:33;;;;;;;;;;;17.90;49.40;;;;;;5062510;28;19929;-56
2021/01/23 13:56:59;;;;;;;;;;;17.90;49.40;;;;;;5066600;28;20453;-56
2021/01/23 13:59:26;;;;;;;;;;;17.90;49.40;;;;;;5062623;28;20387;-56
2021/01/23 14:01:52;;;;;;;;;;;17.80;49.40;;;;;;5062735;28;19934;-56
2021/01/23 14:04:18;;;;;;;;;;;17.80;49.40;;;;;;5067049;28;19928;-56
2021/01/23 14:06:44;;;;;;;;;;;17.80;49.40;;;;;;5057461;28;19921;-59
2021/01/23 14:09:11;;;;;;;;;;;17.80;49.40;;;;;;5067396;28;19943;-59
2021/01/23 14:11:37;;;;;;;;;;;17.80;49.40;;;;;;5058615;28;19920;-59
2021/01/23 14:14:03;;;;;;;;;;;17.80;49.40;;;;;;5071518;28;19920;-59
2021/01/23 14:16:29;;;;;;;;;;;17.80;49.50;;;;;;5060060;28;19926;-59
2021/01/23 14:18:57;;;;;;;;;;;17.80;49.50;;;;;;5064634;28;19924;-59
2021/01/23 14:21:24;;;;;;;;;;;17.80;49.60;;;;;;5059828;28;19920;-59
2021/01/23 14:23:50;;;;;;;;;;;17.70;49.50;;;;;;5080439;28;20355;-59
2021/01/23 14:26:21;;;;;;;;;;;17.70;49.50;;;;;;5064364;28;19920;-55
2021/01/23 14:28:48;;;;;;;;;;;17.70;49.50;;;;;;5071251;28;19932;-55
2021/01/23 14:31:15;;;;;;;;;;;17.70;50.10;;;;;;5064789;28;20221;-55
2021/01/23 14:33:41;;;;;;;;;;;17.70;49.60;;;;;;5064029;28;19932;-54
2021/01/23 14:36:13;;;;;;;;;;;17.70;49.60;;;;;;5066280;28;19928;-55
2021/01/23 14:38:40;;;;;;;;;;;17.70;49.60;;;;;;5069440;28;19927;-55
2021/01/23 14:41:16;;;;;;;;;;;17.70;49.60;;;;;;5066137;28;20407;-55
2021/01/23 14:43:42;;;;;;;;;;;17.70;49.60;;;;;;5062840;28;19928;-55
2021/01/23 14:46:12;;;;;;;;;;;17.70;49.60;;;;;;5058890;28;19965;-58
2021/01/23 14:48:39;;;;;;;;;;;17.60;49.60;;;;;;5058373;28;19936;-58
2021/01/23 14:51:05;;;;;;;;;;;17.70;49.70;;;;;;5061703;28;20381;-56
2021/01/23 14:53:32;;;;;;;;;;;17.60;49.60;;;;;;5066238;28;19931;-54
2021/01/23 14:56:03;;;;;;;;;;;17.60;49.60;;;;;;5064964;28;20343;-57
2021/01/23 14:58:30;;;;;;;;;;;17.60;49.80;;;;;;5055261;28;19925;-58
2021/01/23 15:00:56;;;;;;;;;;;17.60;49.80;;;;;;5064867;28;19939;-57
2021/01/23 15:03:22;;;;;;;;;;;17.60;49.90;;;;;;5058686;28;19929;-57
2021/01/23 15:05:54;;;;;;;;;;;17.60;50.00;;;;;;5061259;28;19983;-55
2021/01/23 15:08:20;;;;;;;;;;;17.60;50.20;;;;;;5059560;28;19929;-54
2021/01/23 15:10:47;;;;;;;;;;;17.60;50.30;;;;;;5063001;28;20397;-56
2021/01/23 15:13:13;;;;;;;;;;;17.60;50.50;;;;;;5043613;28;19933;-56
2021/01/23 15:15:41;;;;;;;;;;;17.60;50.60;;;;;;5056671;28;19932;-56
2021/01/23 15:18:07;;;;;;;;;;;17.60;50.60;;;;;;5048925;28;20692;-56